Time;durP1;ratioP1;P1;durP2;ratioP2;P2;SDS_P1;SDS_P2;PMS_P1;PMS_P2;Temp;Humidity;BMP_temperature;BMP_pressure;BME280_temperature;BME280_humidity;BME280_pressure;Samples;Min_cycle;Max_cycle;Signal;HPM_P1;HPM_P2
2022/11/11 00:04:00;;;;;;;2.47;1.60;;;15.60;77.00;;;;;;10448238;28;20098;-58
2022/11/11 00:09:01;;;;;;;3.30;1.40;;;15.50;76.90;;;;;;10429732;28;20104;-58
2022/11/11 00:14:01;;;;;;;2.75;1.50;;;15.50;76.90;;;;;;10446441;28;20108;-58
2022/11/11 00:29:47;;;;;;;3.55;1.85;;;15.50;76.80;;;;;;10446043;28;20389;-58
2022/11/11 00:40:10;;;;;;;2.92;2.00;;;15.50;77.40;;;;;;10443906;28;20049;-58
2022/11/11 00:45:12;;;;;;;3.65;1.90;;;15.50;76.80;;;;;;10446623;28;20103;-58
2022/11/11 00:55:44;;;;;;;3.70;1.60;;;15.50;76.80;;;;;;10445689;28;20391;-58
2022/11/11 01:00:46;;;;;;;3.45;1.65;;;15.50;76.80;;;;;;10446310;28;20096;-57
2022/11/11 01:05:47;;;;;;;3.65;1.88;;;15.50;76.80;;;;;;10445021;28;20092;-58
2022/11/11 01:10:48;;;;;;;3.22;1.90;;;15.50;76.80;;;;;;10428167;28;20021;-58
2022/11/11 01:15:52;;;;;;;2.75;1.52;;;15.50;76.70;;;;;;10428106;28;20511;-58
2022/11/11 01:21:00;;;;;;;3.60;1.50;;;15.50;76.70;;;;;;10428158;28;20025;-57
2022/11/11 01:26:17;;;;;;;4.13;1.70;;;15.50;76.60;;;;;;10445768;28;20036;-58
2022/11/11 01:31:20;;;;;;;3.20;1.77;;;15.50;76.60;;;;;;10451506;28;20021;-58
2022/11/11 01:36:25;;;;;;;2.05;1.63;;;15.50;76.60;;;;;;10452205;28;20069;-58
2022/11/11 01:41:33;;;;;;;4.22;2.22;;;15.50;76.60;;;;;;10435882;28;20029;-58
2022/11/11 01:46:50;;;;;;;5.53;2.20;;;15.50;76.60;;;;;;10435517;28;20056;-58
2022/11/11 01:52:11;;;;;;;2.78;1.60;;;15.50;76.60;;;;;;10451673;28;20045;-58
2022/11/11 01:57:18;;;;;;;3.53;1.70;;;15.50;76.60;;;;;;10451466;28;20036;-58
2022/11/11 02:02:36;;;;;;;2.90;1.90;;;15.50;76.60;;;;;;10451137;28;20017;-57
2022/11/11 02:07:38;;;;;;;3.13;1.55;;;15.50;76.60;;;;;;10451676;28;20479;-58
2022/11/11 02:17:59;;;;;;;3.57;1.70;;;15.40;76.60;;;;;;10438924;28;21115;-57
2022/11/11 02:23:18;;;;;;;2.60;1.88;;;15.40;76.60;;;;;;10450123;28;20551;-58
2022/11/11 02:28:21;;;;;;;2.67;1.70;;;15.40;76.60;;;;;;10451694;28;20028;-58
2022/11/11 02:33:22;;;;;;;3.42;1.70;;;15.40;76.50;;;;;;10450016;28;20068;-58
2022/11/11 02:38:27;;;;;;;2.90;1.95;;;15.40;76.50;;;;;;10449896;28;20136;-58
2022/11/11 02:43:31;;;;;;;2.65;1.80;;;15.40;76.50;;;;;;10429279;28;20024;-58
2022/11/11 02:48:32;;;;;;;2.80;1.90;;;15.40;76.50;;;;;;10432956;28;20091;-58
2022/11/11 02:53:32;;;;;;;7.95;1.65;;;15.40;76.50;;;;;;10448904;28;20021;-58
2022/11/11 02:58:33;;;;;;;3.22;1.90;;;15.40;76.50;;;;;;10448788;28;20040;-56
2022/11/11 03:03:34;;;;;;;3.30;2.10;;;15.40;76.50;;;;;;10432469;28;20051;-58
2022/11/11 03:08:34;;;;;;;3.10;1.92;;;15.40;76.50;;;;;;10448297;28;20072;-58
2022/11/11 03:13:35;;;;;;;3.58;2.08;;;15.40;76.50;;;;;;10448643;28;20151;-56
2022/11/11 03:18:36;;;;;;;2.88;1.80;;;15.40;76.50;;;;;;10448805;28;20571;-58
2022/11/11 03:23:36;;;;;;;2.88;2.15;;;15.40;76.40;;;;;;10448258;28;20040;-58
2022/11/11 03:28:37;;;;;;;3.70;2.35;;;15.40;76.40;;;;;;10448457;28;20075;-58
2022/11/11 03:33:38;;;;;;;3.35;2.05;;;15.40;76.30;;;;;;10481511;28;20081;-58
2022/11/11 03:38:38;;;;;;;3.85;2.10;;;15.40;76.30;;;;;;10449274;28;20120;-59
2022/11/11 03:43:39;;;;;;;3.03;1.98;;;15.40;76.40;;;;;;10430950;28;20067;-58
2022/11/11 03:48:40;;;;;;;3.08;2.25;;;15.40;76.40;;;;;;10448189;28;20056;-60
2022/11/11 03:53:40;;;;;;;2.63;2.10;;;15.40;76.40;;;;;;10446189;28;20492;-58
2022/11/11 03:58:41;;;;;;;3.58;2.30;;;15.40;76.40;;;;;;10480380;28;20041;-58
2022/11/11 04:30:17;;;;;;;3.03;2.22;;;15.40;76.30;;;;;;10447719;28;20606;-58
2022/11/11 04:35:18;;;;;;;3.45;1.67;;;15.40;76.30;;;;;;10446838;28;20057;-58
2022/11/11 04:45:38;;;;;;;5.55;2.53;;;15.30;76.30;;;;;;10446276;28;20037;-58
2022/11/11 04:50:42;;;;;;;3.28;2.17;;;15.40;76.30;;;;;;10445068;28;20064;-58
2022/11/11 05:01:03;;;;;;;3.97;2.25;;;15.30;76.20;;;;;;10442426;28;20395;-58
2022/11/11 05:11:31;;;;;;;3.83;2.28;;;15.30;76.30;;;;;;10441404;28;20029;-58
2022/11/11 05:22:31;;;;;;;2.55;1.85;;;15.30;76.20;;;;;;10466319;28;20037;-58
2022/11/11 05:27:32;;;;;;;3.10;1.90;;;15.30;76.20;;;;;;10452288;28;20365;-58
2022/11/11 05:32:33;;;;;;;3.30;2.17;;;15.30;76.10;;;;;;10453898;28;20017;-57
2022/11/11 05:37:34;;;;;;;3.30;1.88;;;15.30;76.10;;;;;;10444252;28;20047;-58
2022/11/11 05:42:34;;;;;;;2.83;1.80;;;15.30;76.10;;;;;;10448300;28;20043;-58
2022/11/11 05:47:35;;;;;;;3.60;1.90;;;15.30;76.10;;;;;;10451996;28;20043;-58
2022/11/11 05:52:36;;;;;;;5.80;2.45;;;15.30;76.20;;;;;;10451716;28;20159;-58
2022/11/11 05:57:36;;;;;;;8.10;2.55;;;15.40;76.10;;;;;;10452490;28;20562;-56
2022/11/11 06:02:37;;;;;;;8.10;3.40;;;15.50;76.30;;;;;;10451435;28;20056;-59
2022/11/11 06:07:39;;;;;;;7.40;3.22;;;15.70;76.30;;;;;;10453644;28;20025;-58
2022/11/11 06:13:00;;;;;;;9.00;3.10;;;15.80;76.60;;;;;;10450730;28;20448;-59
2022/11/11 06:18:04;;;;;;;7.55;3.17;;;15.90;77.20;;;;;;10417583;28;20037;-60
2022/11/11 06:23:05;;;;;;;6.20;3.15;;;15.90;76.90;;;;;;10450506;28;20056;-60
2022/11/11 06:28:06;;;;;;;10.60;4.63;;;15.80;76.80;;;;;;10451510;28;20036;-61
2022/11/11 06:33:08;;;;;;;14.15;3.45;;;15.80;77.70;;;;;;10449745;28;20045;-59
2022/11/11 06:38:09;;;;;;;28.95;5.15;;;15.70;76.90;;;;;;10447077;28;20124;-59
2022/11/11 06:43:10;;;;;;;17.23;3.85;;;15.70;77.30;;;;;;10448793;28;20027;-59
2022/11/11 06:48:11;;;;;;;14.77;5.28;;;15.80;77.20;;;;;;10448125;28;20071;-59
2022/11/11 06:53:15;;;;;;;22.77;5.28;;;15.80;77.70;;;;;;10466747;28;20069;-62
2022/11/11 06:58:18;;;;;;;19.23;5.20;;;16.00;77.00;;;;;;10447131;28;20041;-58
2022/11/11 07:03:21;;;;;;;34.58;6.00;;;16.10;77.30;;;;;;10447086;28;20018;-64
2022/11/11 07:08:21;;;;;;;40.20;8.05;;;16.20;77.00;;;;;;10447054;28;20106;-62
2022/11/11 07:13:23;;;;;;;37.22;7.28;;;16.10;76.70;;;;;;10431682;28;20182;-60
2022/11/11 07:18:23;;;;;;;32.05;6.07;;;16.00;77.00;;;;;;10444807;28;20377;-60
2022/11/11 07:23:24;;;;;;;25.65;5.82;;;15.80;77.60;;;;;;10450360;28;20096;-60
2022/11/11 07:28:25;;;;;;;17.67;5.00;;;15.70;77.70;;;;;;10450253;28;20031;-60
2022/11/11 07:33:25;;;;;;;22.02;6.13;;;15.70;77.60;;;;;;10444389;28;20658;-61
2022/11/11 07:38:26;;;;;;;25.95;5.93;;;15.70;77.50;;;;;;10454819;28;20083;-61
2022/11/11 07:43:27;;;;;;;18.85;5.38;;;15.80;77.60;;;;;;10437695;28;20572;-61
2022/11/11 07:48:27;;;;;;;13.05;5.18;;;15.90;77.10;;;;;;10452136;28;20033;-62
2022/11/11 07:53:28;;;;;;;21.90;5.97;;;15.80;77.50;;;;;;10450516;28;20475;-62
2022/11/11 07:58:28;;;;;;;18.98;5.10;;;15.70;77.40;;;;;;10453595;28;20064;-61
2022/11/11 08:03:29;;;;;;;20.20;6.18;;;15.60;77.30;;;;;;10482916;28;20049;-62
2022/11/11 08:08:30;;;;;;;20.60;6.78;;;15.60;77.70;;;;;;10454395;28;20012;-62
2022/11/11 08:13:39;;;;;;;23.40;5.63;;;15.70;77.60;;;;;;10456186;28;20372;-62
2022/11/11 08:18:40;;;;;;;16.40;5.32;;;15.70;77.60;;;;;;10450610;28;20043;-61
2022/11/11 08:23:41;;;;;;;15.98;5.07;;;15.80;77.50;;;;;;10457292;28;20013;-62
2022/11/11 08:28:42;;;;;;;18.98;5.13;;;15.70;77.00;;;;;;10450313;28;20056;-62
2022/11/11 08:33:42;;;;;;;16.70;4.90;;;15.70;77.60;;;;;;10452637;28;20076;-62
2022/11/11 08:38:43;;;;;;;18.65;5.13;;;15.60;77.80;;;;;;10457115;28;20610;-62
2022/11/11 08:43:44;;;;;;;18.60;4.18;;;15.60;77.50;;;;;;10450036;28;20028;-61
2022/11/11 08:48:44;;;;;;;13.70;4.40;;;15.60;77.30;;;;;;10447208;28;20107;-61
2022/11/11 08:53:45;;;;;;;18.38;4.70;;;15.70;77.00;;;;;;10446369;28;20029;-61
2022/11/11 08:58:46;;;;;;;19.88;4.60;;;15.60;77.60;;;;;;10448668;28;20037;-61
2022/11/11 09:03:46;;;;;;;13.73;4.93;;;15.60;77.70;;;;;;10448442;28;20104;-61
2022/11/11 09:08:47;;;;;;;17.63;5.75;;;15.70;78.50;;;;;;10456093;28;20104;-62
2022/11/11 09:13:48;;;;;;;10.88;3.92;;;15.90;81.20;;;;;;10449404;28;20107;-62
2022/11/11 09:18:48;;;;;;;13.35;4.68;;;16.20;79.00;;;;;;10446321;28;20060;-61
2022/11/11 09:23:49;;;;;;;15.00;3.40;;;16.60;75.90;;;;;;10457791;28;20100;-62
2022/11/11 09:28:50;;;;;;;11.77;3.70;;;16.90;75.50;;;;;;10460220;28;20048;-63
2022/11/11 09:33:51;;;;;;;11.77;4.45;;;16.90;75.00;;;;;;10458021;28;20135;-65
2022/11/11 09:38:51;;;;;;;12.43;3.78;;;16.90;74.80;;;;;;10437295;28;20025;-62
2022/11/11 09:43:58;;;;;;;9.88;3.88;;;16.70;74.90;;;;;;10447815;28;20029;-63
2022/11/11 09:49:21;;;;;;;11.43;4.38;;;16.80;74.90;;;;;;10448219;28;20036;-63
2022/11/11 09:54:54;;;;;;;9.10;3.50;;;16.70;75.00;;;;;;10455151;28;20033;-62
2022/11/11 09:59:59;;;;;;;10.80;3.97;;;16.60;75.00;;;;;;10455474;28;20068;-62
2022/11/11 10:05:18;;;;;;;6.82;3.28;;;16.60;75.20;;;;;;10454916;28;20021;-63
2022/11/11 10:10:43;;;;;;;12.40;3.00;;;16.50;75.20;;;;;;10454871;28;20028;-63
2022/11/11 10:16:21;;;;;;;8.65;3.15;;;16.50;75.30;;;;;;10454451;28;20819;-63
2022/11/11 10:21:59;;;;;;;9.15;3.17;;;16.50;75.30;;;;;;10454094;28;20025;-63
2022/11/11 10:27:09;;;;;;;10.82;3.40;;;16.40;75.30;;;;;;10453841;28;20033;-63
2022/11/11 10:32:24;;;;;;;7.53;3.50;;;16.40;75.30;;;;;;10438190;28;20052;-63
2022/11/11 10:37:37;;;;;;;7.10;3.40;;;16.40;75.20;;;;;;10455100;28;20094;-63
2022/11/11 10:42:38;;;;;;;9.25;2.85;;;16.40;75.30;;;;;;10453824;28;20009;-62
2022/11/11 10:47:46;;;;;;;6.68;2.60;;;16.30;75.50;;;;;;10454413;28;20511;-62
2022/11/11 10:52:58;;;;;;;4.93;3.00;;;16.20;75.80;;;;;;10453015;28;20040;-62
2022/11/11 10:58:33;;;;;;;8.45;3.00;;;16.20;76.30;;;;;;10452775;28;20204;-62
2022/11/11 11:03:41;;;;;;;4.47;2.83;;;16.20;76.50;;;;;;10452185;28;20040;-63
2022/11/11 11:08:47;;;;;;;5.32;2.88;;;16.10;76.40;;;;;;10452350;28;20548;-62
2022/11/11 11:13:52;;;;;;;5.78;2.85;;;16.20;76.40;;;;;;10452271;28;20036;-63
2022/11/11 11:19:21;;;;;;;7.03;3.05;;;16.20;76.40;;;;;;10451694;28;20162;-63
2022/11/11 11:24:35;;;;;;;7.05;3.00;;;16.20;76.30;;;;;;10439897;28;20025;-63
2022/11/11 11:29:43;;;;;;;4.95;3.15;;;16.30;76.20;;;;;;10451799;28;20017;-62
2022/11/11 11:34:54;;;;;;;6.25;3.15;;;16.20;76.00;;;;;;10451753;28;20097;-61
2022/11/11 11:40:00;;;;;;;5.72;3.28;;;16.20;76.00;;;;;;10485184;28;20037;-60
2022/11/11 11:45:22;;;;;;;5.63;2.63;;;16.20;76.10;;;;;;10451100;28;20075;-66
2022/11/11 11:50:46;;;;;;;6.57;2.90;;;16.20;76.10;;;;;;10450851;28;20025;-66
2022/11/11 11:56:18;;;;;;;6.13;2.97;;;16.20;76.00;;;;;;10451646;28;20391;-62
2022/11/11 12:01:47;;;;;;;5.25;3.13;;;16.20;75.90;;;;;;10422640;28;20091;-64
2022/11/11 12:07:28;;;;;;;14.45;3.35;;;16.30;75.90;;;;;;10449962;28;20017;-68
2022/11/11 12:13:14;;;;;;;4.50;2.85;;;16.30;76.50;;;;;;10448032;28;20036;-65
2022/11/11 12:18:58;;;;;;;6.32;2.50;;;16.30;75.80;;;;;;10449252;28;20083;-67
2022/11/11 12:24:40;;;;;;;4.70;2.47;;;16.30;75.90;;;;;;10443638;28;20484;-64
2022/11/11 12:30:10;;;;;;;5.40;2.90;;;16.40;76.00;;;;;;10425585;28;20021;-65
2022/11/11 12:36:03;;;;;;;7.32;3.25;;;16.30;76.70;;;;;;10463757;28;20094;-64
2022/11/11 12:41:12;;;;;;;3.92;2.60;;;16.30;76.90;;;;;;10454002;28;20043;-66
2022/11/11 12:46:36;;;;;;;4.43;1.83;;;16.30;76.10;;;;;;10459820;28;20039;-65
2022/11/11 12:51:59;;;;;;;3.65;1.88;;;16.40;76.20;;;;;;10460512;28;20016;-65
2022/11/11 12:57:52;;;;;;;8.32;2.90;;;16.40;76.10;;;;;;10445930;28;20028;-65
2022/11/11 13:03:13;;;;;;;5.63;2.42;;;16.20;76.70;;;;;;10458644;28;20361;-64
2022/11/11 13:09:07;;;;;;;4.50;2.42;;;16.30;76.80;;;;;;10446035;28;20043;-64
2022/11/11 13:14:36;;;;;;;3.67;1.67;;;16.30;76.90;;;;;;10387164;28;20041;-65
2022/11/11 13:19:47;;;;;;;20.80;4.03;;;16.20;77.00;;;;;;10446032;28;21315;-64
2022/11/11 13:24:50;;;;;;;21.58;4.75;;;16.20;77.30;;;;;;10447642;28;20025;-66
2022/11/11 13:30:24;;;;;;;15.25;3.90;;;16.30;77.60;;;;;;10451861;28;20048;-65
2022/11/11 13:35:41;;;;;;;15.40;3.40;;;16.40;76.80;;;;;;10437531;28;20048;-64
2022/11/11 13:40:45;;;;;;;12.57;3.83;;;16.30;77.10;;;;;;10450851;28;20049;-63
2022/11/11 13:45:53;;;;;;;12.60;3.90;;;16.30;79.50;;;;;;10468492;28;20028;-63
2022/11/11 13:51:34;;;;;;;13.30;3.53;;;16.70;77.40;;;;;;10449934;28;20029;-66
2022/11/11 13:56:43;;;;;;;18.23;5.28;;;16.80;76.90;;;;;;10446292;28;20021;-61
2022/11/11 14:01:44;;;;;;;;;;;16.90;76.90;;;;;;10451577;28;20149;-62
2022/11/11 14:06:49;;;;;;;24.30;4.53;;;16.90;77.30;;;;;;10450839;28;19905;-61
2022/11/11 14:11:50;;;;;;;9.95;3.63;;;16.80;77.10;;;;;;10450398;28;20025;-62
2022/11/11 14:16:53;;;;;;;20.98;4.03;;;16.70;77.10;;;;;;10457898;28;20531;-59
2022/11/11 14:21:56;;;;;;;18.40;3.45;;;16.70;77.40;;;;;;10451591;28;20021;-63
2022/11/11 14:26:59;;;;;;;10.45;3.60;;;16.80;76.90;;;;;;10451813;28;20467;-63
2022/11/11 14:32:22;;;;;;;10.98;3.65;;;16.80;76.90;;;;;;10449885;28;20112;-60
2022/11/11 14:37:42;;;;;;;15.32;4.93;;;16.80;77.40;;;;;;10448316;28;20033;-58
2022/11/11 14:42:44;;;;;;;15.15;3.95;;;16.80;77.70;;;;;;10451449;28;20055;-60
2022/11/11 14:47:45;;;;;;;16.33;3.85;;;16.80;77.30;;;;;;10459967;28;20029;-61
2022/11/11 14:52:46;;;;;;;36.67;5.75;;;16.70;78.30;;;;;;10449345;28;20456;-61
2022/11/11 14:58:07;;;;;;;33.20;5.80;;;16.60;77.90;;;;;;10447976;28;20392;-61
2022/11/11 15:03:28;;;;;;;24.60;5.75;;;16.40;78.30;;;;;;10449121;28;20017;-61
2022/11/11 15:09:17;;;;;;;20.50;4.55;;;16.40;78.70;;;;;;10450019;28;20039;-57
2022/11/11 15:14:52;;;;;;;20.35;5.07;;;16.60;78.30;;;;;;10382512;28;20033;-60
2022/11/11 15:20:45;;;;;;;25.00;4.85;;;16.70;78.30;;;;;;10445822;28;20053;-61
2022/11/11 15:25:51;;;;;;;26.75;6.45;;;16.70;78.10;;;;;;10452190;28;20505;-57
2022/11/11 15:31:17;;;;;;;27.85;5.72;;;16.70;79.20;;;;;;10457251;28;20025;-58
2022/11/11 15:36:51;;;;;;;26.88;4.70;;;16.60;78.70;;;;;;10455929;28;20073;-57
2022/11/11 15:41:52;;;;;;;17.40;3.88;;;16.50;79.00;;;;;;10460903;28;20047;-57
2022/11/11 15:46:53;;;;;;;15.43;3.63;;;16.60;79.30;;;;;;10442074;28;20104;-57
2022/11/11 15:51:57;;;;;;;13.95;4.32;;;16.60;79.30;;;;;;10444639;28;20009;-60
2022/11/11 15:56:58;;;;;;;19.10;4.15;;;17.00;78.40;;;;;;10458252;28;20033;-58
2022/11/11 16:01:58;;;;;;;12.88;4.60;;;17.10;78.60;;;;;;10445970;28;20104;-57
2022/11/11 16:06:59;;;;;;;13.82;4.30;;;17.20;77.90;;;;;;10443712;28;20036;-57
2022/11/11 16:12:01;;;;;;;15.13;4.07;;;17.20;78.00;;;;;;10430839;28;20029;-58
2022/11/11 16:17:02;;;;;;;13.90;4.00;;;17.10;77.80;;;;;;10450960;28;20021;-61
2022/11/11 16:22:15;;;;;;;14.98;3.65;;;17.10;77.50;;;;;;10444156;28;20044;-59
2022/11/11 16:27:20;;;;;;;16.38;4.05;;;17.30;77.30;;;;;;10443048;28;20029;-59
2022/11/11 16:32:24;;;;;;;15.70;4.47;;;17.30;77.40;;;;;;10439936;28;20782;-60
2022/11/11 16:37:25;;;;;;;13.07;3.90;;;17.20;76.90;;;;;;10443173;28;20128;-60
2022/11/11 16:42:28;;;;;;;15.25;4.70;;;17.20;77.00;;;;;;10423877;28;20029;-59
2022/11/11 16:47:32;;;;;;;14.13;4.32;;;17.00;76.70;;;;;;10430306;28;20051;-59
2022/11/11 16:52:40;;;;;;;9.75;4.05;;;16.90;76.80;;;;;;10432452;28;20017;-62
2022/11/11 16:57:42;;;;;;;17.10;4.30;;;17.10;75.20;;;;;;10433260;28;20036;-60
2022/11/11 17:02:42;;;;;;;32.65;4.90;;;17.20;74.60;;;;;;10443763;28;20009;-61
2022/11/11 17:07:43;;;;;;;10.32;5.72;;;17.30;74.60;;;;;;10444299;28;20025;-62
2022/11/11 17:12:44;;;;;;;13.00;5.75;;;17.30;74.20;;;;;;10441974;28;20108;-62
2022/11/11 17:17:45;;;;;;;16.08;6.35;;;17.40;75.00;;;;;;10444984;28;20051;-59
2022/11/11 17:22:53;;;;;;;14.93;5.82;;;17.60;76.20;;;;;;10442163;28;20013;-60
2022/11/11 17:27:53;;;;;;;23.30;5.55;;;17.80;76.80;;;;;;10427745;28;20033;-59
2022/11/11 17:32:54;;;;;;;21.52;5.68;;;17.90;76.60;;;;;;10445709;28;20830;-59
2022/11/11 17:37:55;;;;;;;18.02;5.07;;;17.70;77.10;;;;;;10444089;28;20068;-59
2022/11/11 17:42:56;;;;;;;20.88;5.63;;;17.70;77.00;;;;;;10445198;28;20100;-59
2022/11/11 17:47:56;;;;;;;16.67;4.82;;;17.60;77.20;;;;;;10445754;28;20228;-59
2022/11/11 17:52:57;;;;;;;15.32;5.38;;;17.60;77.20;;;;;;10443647;28;20044;-59
2022/11/11 17:57:59;;;;;;;15.07;4.72;;;17.50;77.20;;;;;;10444443;28;20126;-60
2022/11/11 18:02:59;;;;;;;15.02;4.47;;;17.30;77.20;;;;;;10443909;28;20388;-56
2022/11/11 18:08:00;;;;;;;10.88;4.75;;;17.30;77.60;;;;;;10445327;28;20128;-57
2022/11/11 18:13:01;;;;;;;14.30;4.85;;;17.20;77.50;;;;;;10447090;28;20036;-58
2022/11/11 18:18:02;;;;;;;16.58;4.78;;;17.10;77.60;;;;;;10451230;28;20476;-58
2022/11/11 18:23:02;;;;;;;19.38;5.50;;;17.10;77.30;;;;;;10443854;28;20586;-57
2022/11/11 18:28:03;;;;;;;12.73;4.38;;;17.10;77.80;;;;;;10450762;28;20108;-59
2022/11/11 18:33:04;;;;;;;14.45;4.45;;;17.10;77.00;;;;;;10450010;28;20032;-61
2022/11/11 18:38:04;;;;;;;12.63;4.63;;;17.00;77.20;;;;;;10451373;28;20116;-60
2022/11/11 18:43:05;;;;;;;17.23;6.05;;;17.00;77.20;;;;;;10448930;28;20190;-61
2022/11/11 18:48:05;;;;;;;12.50;4.35;;;16.80;78.10;;;;;;10449102;28;20052;-59
2022/11/11 18:53:06;;;;;;;10.18;4.53;;;16.70;77.40;;;;;;10448585;28;20045;-62
2022/11/11 18:58:07;;;;;;;12.25;4.18;;;16.70;77.40;;;;;;10447822;28;20162;-60
2022/11/11 19:03:08;;;;;;;10.98;4.38;;;16.70;77.30;;;;;;10449028;28;20024;-57
2022/11/11 19:08:08;;;;;;;7.82;3.80;;;16.70;77.20;;;;;;10445498;28;20104;-57
2022/11/11 19:13:09;;;;;;;8.07;4.13;;;16.60;77.30;;;;;;10447092;28;20129;-57
2022/11/11 19:18:10;;;;;;;15.02;4.22;;;16.50;77.30;;;;;;10449338;28;20643;-58
2022/11/11 19:23:10;;;;;;;6.07;3.45;;;16.40;77.40;;;;;;10429712;28;20021;-58
2022/11/11 19:28:11;;;;;;;9.23;3.63;;;16.40;77.40;;;;;;10449134;28;20399;-57
2022/11/11 19:33:12;;;;;;;6.20;3.28;;;16.40;77.50;;;;;;10428559;28;20434;-58
2022/11/11 19:38:13;;;;;;;7.63;3.67;;;16.30;77.40;;;;;;10444829;28;20029;-59
2022/11/11 19:43:13;;;;;;;6.85;3.38;;;16.30;77.40;;;;;;10445965;28;20067;-55
2022/11/11 19:48:14;;;;;;;6.93;3.80;;;16.30;77.30;;;;;;10431178;28;20166;-57
2022/11/11 19:53:15;;;;;;;4.43;2.67;;;16.20;77.30;;;;;;10445778;28;20025;-59
2022/11/11 19:58:16;;;;;;;12.00;3.65;;;16.20;77.40;;;;;;10446609;28;20036;-60
2022/11/11 20:03:17;;;;;;;9.02;4.32;;;16.10;76.80;;;;;;10427971;28;20029;-58
2022/11/11 20:08:17;;;;;;;10.52;3.63;;;16.20;76.80;;;;;;10445244;28;20013;-59
2022/11/11 20:13:18;;;;;;;6.05;2.78;;;16.20;76.80;;;;;;10445216;28;20619;-59
2022/11/11 20:18:19;;;;;;;9.05;3.67;;;16.10;76.70;;;;;;10446919;28;20039;-58
2022/11/11 20:23:19;;;;;;;5.95;3.17;;;16.10;77.10;;;;;;10447232;28;20129;-60
2022/11/11 20:28:21;;;;;;;4.13;2.92;;;16.10;77.30;;;;;;10445196;28;20066;-59
2022/11/11 20:33:22;;;;;;;5.40;3.00;;;16.00;77.40;;;;;;10446321;28;20053;-59
2022/11/11 20:38:22;;;;;;;5.82;3.17;;;16.00;77.60;;;;;;10445671;28;20092;-60
2022/11/11 20:43:23;;;;;;;5.15;2.63;;;16.00;77.60;;;;;;10446842;28;20052;-58
2022/11/11 20:48:24;;;;;;;4.15;2.60;;;16.00;77.60;;;;;;10446185;28;20964;-60
2022/11/11 20:53:24;;;;;;;4.50;2.78;;;16.00;77.50;;;;;;10446083;28;20056;-57
2022/11/11 20:58:25;;;;;;;8.20;3.97;;;15.90;77.50;;;;;;10444748;28;20072;-59
2022/11/11 21:03:26;;;;;;;4.72;2.83;;;15.90;77.50;;;;;;10442546;28;20463;-57
2022/11/11 21:08:26;;;;;;;5.40;3.33;;;15.90;77.60;;;;;;10445098;28;20083;-58
2022/11/11 21:13:28;;;;;;;4.05;2.20;;;15.90;77.60;;;;;;10445171;28;20131;-59
2022/11/11 21:18:30;;;;;;;4.63;3.03;;;15.80;77.60;;;;;;10428629;28;20064;-59
2022/11/11 21:23:30;;;;;;;5.60;2.97;;;15.90;77.60;;;;;;10444428;28;20049;-59
2022/11/11 21:28:33;;;;;;;4.30;3.20;;;15.80;77.50;;;;;;10444240;28;20100;-59
2022/11/11 21:33:35;;;;;;;5.43;2.80;;;15.80;77.50;;;;;;10444573;28;21007;-59
2022/11/11 21:38:37;;;;;;;4.20;2.85;;;15.80;77.50;;;;;;10444547;28;20426;-60
2022/11/11 21:43:40;;;;;;;4.30;2.90;;;15.80;77.50;;;;;;10444342;28;20032;-59
2022/11/11 21:48:40;;;;;;;5.50;2.95;;;15.80;77.50;;;;;;10452095;28;20460;-59
2022/11/11 21:53:42;;;;;;;4.65;2.97;;;15.80;77.50;;;;;;10451922;28;20035;-59
2022/11/11 21:58:43;;;;;;;5.20;3.20;;;15.80;77.50;;;;;;10452005;28;20040;-59
2022/11/11 22:03:51;;;;;;;4.20;2.20;;;15.70;77.40;;;;;;10434514;28;20020;-58
2022/11/11 22:08:55;;;;;;;7.70;2.67;;;15.70;77.30;;;;;;10452130;28;20480;-57
2022/11/11 22:13:56;;;;;;;4.93;3.03;;;15.70;77.30;;;;;;10450910;28;20025;-59
2022/11/11 22:19:07;;;;;;;3.47;2.55;;;15.70;77.10;;;;;;10451286;28;20155;-60
2022/11/11 22:24:09;;;;;;;4.13;2.85;;;15.70;76.70;;;;;;10451339;28;20041;-59
2022/11/11 22:29:11;;;;;;;5.53;3.25;;;15.70;76.60;;;;;;10450982;28;20032;-56
2022/11/11 22:34:14;;;;;;;6.50;3.53;;;15.70;76.80;;;;;;10451787;28;20037;-59
2022/11/11 22:39:14;;;;;;;4.13;2.42;;;15.70;76.90;;;;;;10450253;28;20043;-59
2022/11/11 22:44:15;;;;;;;4.85;2.85;;;15.70;77.00;;;;;;10449897;28;20059;-59
2022/11/11 22:49:16;;;;;;;5.50;3.13;;;15.60;77.00;;;;;;10450318;28;20112;-57
2022/11/11 22:54:20;;;;;;;4.35;3.17;;;15.60;77.00;;;;;;10448973;28;20190;-59
2022/11/11 22:59:23;;;;;;;3.17;2.63;;;15.60;77.60;;;;;;10448876;28;20551;-59
2022/11/11 23:04:24;;;;;;;4.80;2.90;;;15.60;76.90;;;;;;10450432;28;20683;-59
2022/11/11 23:09:25;;;;;;;4.25;2.72;;;15.60;76.90;;;;;;10450581;28;20112;-59
2022/11/11 23:14:25;;;;;;;4.22;2.88;;;15.60;76.90;;;;;;10448759;28;20112;-58
2022/11/11 23:19:28;;;;;;;3.53;2.90;;;15.60;77.00;;;;;;10450146;28;20071;-59
2022/11/11 23:24:28;;;;;;;4.03;2.60;;;15.50;76.60;;;;;;10434878;28;20344;-59
2022/11/11 23:29:29;;;;;;;4.70;3.10;;;15.60;76.20;;;;;;10449854;28;20033;-58
2022/11/11 23:34:30;;;;;;;3.88;2.70;;;15.50;75.90;;;;;;10447778;28;20056;-57
2022/11/11 23:39:31;;;;;;;4.13;3.13;;;15.50;76.80;;;;;;10447797;28;20052;-58
2022/11/11 23:44:31;;;;;;;4.38;2.92;;;15.50;76.20;;;;;;10448985;28;20052;-58
2022/11/11 23:49:32;;;;;;;4.45;2.80;;;15.50;76.50;;;;;;10449075;28;20052;-59
2022/11/11 23:54:33;;;;;;;3.53;2.97;;;15.50;76.50;;;;;;10448043;28;20064;-58
2022/11/11 23:59:33;;;;;;;4.80;3.10;;;15.50;76.50;;;;;;10448162;28;20510;-59
